Terminal Aerodrome Forecast
Issued by NWS Corpus Christi, TX

Current Version | Previous Version | Text Only | Print | Product List | Glossary Off
Versions: 1 2 3 4 5 6 7 8 9 10 11 12 13 14 15 16 17 18 19

000
FTUS44 KCRP 032325
TAFCRP
TAF
KCRP 032325Z 0400/0424 01014KT 6SM -RA BR FEW010 OVC015
     FM040800 03015KT P6SM -RA BKN007 OVC013
     FM041500 02015G21KT 5SM -RA BR BKN007=

USA.gov is the U.S. government's official web portal to all federal, state and local government web resources and services.